createdAt,value
2023-05-07T00:01:08.191Z,10.00
2023-05-07T00:03:35.119Z,11.60
2023-05-07T00:06:01.918Z,9.73
2023-05-07T00:08:28.682Z,10.37
2023-05-07T00:10:55.612Z,10.80
2023-05-07T00:13:22.457Z,11.23
2023-05-07T00:15:49.390Z,11.17
2023-05-07T00:18:17.305Z,10.57
2023-05-07T00:20:44.021Z,10.83
2023-05-07T00:23:11.167Z,10.93
2023-05-07T00:25:37.938Z,9.60
2023-05-07T00:28:04.968Z,9.67
2023-05-07T00:30:31.840Z,10.90
2023-05-07T00:32:58.794Z,10.40
2023-05-07T00:35:25.835Z,10.70
2023-05-07T00:37:52.623Z,10.17
2023-05-07T00:40:19.511Z,9.53
2023-05-07T00:42:48.145Z,11.50
2023-05-07T00:45:15.881Z,10.73
2023-05-07T00:47:43.321Z,11.47
2023-05-07T00:50:13.724Z,10.90
2023-05-07T00:52:40.942Z,11.97
2023-05-07T00:55:08.405Z,11.27
2023-05-07T00:57:40.490Z,12.17
2023-05-07T01:00:10.174Z,9.53
2023-05-07T01:02:37.589Z,10.27
2023-05-07T01:05:06.693Z,9.83
2023-05-07T01:07:35.856Z,10.00
2023-05-07T01:10:04.219Z,10.77
2023-05-07T01:12:31.848Z,10.80
2023-05-07T01:14:59.234Z,10.13
2023-05-07T01:17:26.237Z,10.87
2023-05-07T01:19:54.247Z,12.00
2023-05-07T01:22:33.223Z,11.43
2023-05-07T01:25:02.749Z,11.90
2023-05-07T01:27:29.904Z,11.20
2023-05-07T01:29:56.765Z,14.10
2023-05-07T01:32:43.878Z,12.50
2023-05-07T01:35:13.157Z,11.77
2023-05-07T01:37:41.096Z,12.17
2023-05-07T01:40:09.375Z,12.30
2023-05-07T01:42:36.904Z,12.57
2023-05-07T01:45:04.198Z,13.47
2023-05-07T01:47:32.024Z,13.40
2023-05-07T01:49:59.546Z,13.27
2023-05-07T01:52:26.559Z,13.63
2023-05-07T01:54:53.336Z,14.57
2023-05-07T01:57:20.312Z,13.20
2023-05-07T01:59:47.047Z,13.93
2023-05-07T02:02:13.902Z,14.80
2023-05-07T02:04:40.713Z,14.57
2023-05-07T02:07:07.457Z,15.13
2023-05-07T02:09:34.194Z,13.87
2023-05-07T02:12:01.485Z,13.13
2023-05-07T02:14:28.289Z,13.13
2023-05-07T02:16:55.140Z,14.03
2023-05-07T02:19:22.248Z,13.83
2023-05-07T02:21:49.282Z,14.57
2023-05-07T02:24:16.207Z,14.17
2023-05-07T02:26:43.021Z,13.67
2023-05-07T02:29:09.806Z,13.77
2023-05-07T02:31:36.572Z,15.87
2023-05-07T02:34:03.499Z,14.73
2023-05-07T02:36:30.332Z,15.53
2023-05-07T02:38:57.073Z,15.60
2023-05-07T02:41:23.850Z,15.37
2023-05-07T02:43:50.629Z,15.60
2023-05-07T02:46:17.428Z,16.13
2023-05-07T02:48:44.293Z,15.43
2023-05-07T02:51:11.201Z,16.63
2023-05-07T02:53:38.322Z,17.43
2023-05-07T02:56:06.820Z,17.17
2023-05-07T02:58:33.603Z,17.07
2023-05-07T03:01:00.777Z,16.77
2023-05-07T03:03:27.705Z,15.53
2023-05-07T03:05:54.513Z,17.80
2023-05-07T03:08:21.314Z,16.73
2023-05-07T03:10:48.343Z,16.57
2023-05-07T03:13:15.188Z,16.20
2023-05-07T03:15:42.122Z,16.27
2023-05-07T03:18:09.140Z,17.87
2023-05-07T03:20:38.998Z,16.07
2023-05-07T03:23:05.967Z,17.50
2023-05-07T03:25:33.407Z,16.23
2023-05-07T03:28:00.467Z,17.07
2023-05-07T03:30:27.240Z,15.30
2023-05-07T03:32:54.072Z,15.87
2023-05-07T03:35:21.309Z,15.30
2023-05-07T03:37:48.051Z,14.77
2023-05-07T03:40:15.007Z,15.83
2023-05-07T03:42:42.061Z,15.37
2023-05-07T03:45:09.536Z,15.47
2023-05-07T03:47:36.360Z,15.07
2023-05-07T03:50:03.261Z,16.60
2023-05-07T03:52:30.038Z,14.80
2023-05-07T03:54:56.799Z,14.43
2023-05-07T03:57:23.658Z,16.93
2023-05-07T03:59:50.371Z,16.63
2023-05-07T04:02:17.195Z,17.17
2023-05-07T04:04:44.009Z,18.23
2023-05-07T04:07:10.984Z,16.10
2023-05-07T04:09:37.765Z,17.10
2023-05-07T04:12:04.755Z,16.07
2023-05-07T04:14:33.130Z,15.40
2023-05-07T04:17:00.630Z,15.63
2023-05-07T04:19:27.781Z,17.43
2023-05-07T04:21:54.783Z,16.77
2023-05-07T04:24:21.762Z,16.43
2023-05-07T04:26:48.588Z,17.03
2023-05-07T04:29:15.455Z,17.47
2023-05-07T04:31:45.317Z,16.67
2023-05-07T04:34:12.664Z,20.33
2023-05-07T04:36:39.825Z,17.50
2023-05-07T04:39:07.967Z,18.47
2023-05-07T04:41:37.320Z,19.73
2023-05-07T04:44:05.165Z,19.10
2023-05-07T04:46:32.417Z,16.53
2023-05-07T04:48:59.251Z,19.63
2023-05-07T04:51:26.428Z,18.90
2023-05-07T04:53:53.192Z,19.00
2023-05-07T04:56:19.916Z,19.07
2023-05-07T04:58:47.093Z,19.77
2023-05-07T05:01:13.911Z,17.90
2023-05-07T05:03:40.799Z,18.80
2023-05-07T05:06:07.684Z,20.10
2023-05-07T05:08:34.441Z,19.60
2023-05-07T05:11:03.288Z,19.40
2023-05-07T05:13:30.539Z,19.30
2023-05-07T05:15:57.385Z,19.10
2023-05-07T05:18:24.214Z,19.03
2023-05-07T05:20:52.890Z,20.87
2023-05-07T05:23:20.872Z,19.83
2023-05-07T05:25:47.734Z,20.27
2023-05-07T05:28:14.533Z,20.93
2023-05-07T05:30:41.406Z,19.63
2023-05-07T05:33:08.249Z,19.67
2023-05-07T05:35:36.449Z,20.93
2023-05-07T05:38:04.075Z,17.93
2023-05-07T05:40:31.116Z,19.97
2023-05-07T05:42:57.937Z,18.93
2023-05-07T05:45:25.024Z,20.00
2023-05-07T05:47:51.907Z,19.13
2023-05-07T05:50:18.842Z,18.40
2023-05-07T05:52:45.617Z,19.53
2023-05-07T05:55:12.401Z,18.57
2023-05-07T05:57:39.532Z,18.73
2023-05-07T06:00:07.542Z,20.07
2023-05-07T06:02:34.589Z,18.03
2023-05-07T06:05:01.434Z,20.23
2023-05-07T06:07:28.317Z,19.40
2023-05-07T06:09:55.067Z,19.50
2023-05-07T06:12:22.343Z,17.60
2023-05-07T06:14:49.295Z,17.70
2023-05-07T06:17:16.128Z,18.23
2023-05-07T06:19:42.899Z,18.33
2023-05-07T06:22:10.084Z,18.37
2023-05-07T06:24:36.964Z,18.67
2023-05-07T06:27:03.852Z,19.47
2023-05-07T06:29:33.738Z,18.17
2023-05-07T06:32:14.277Z,17.93
2023-05-07T06:34:41.825Z,19.17
2023-05-07T06:37:08.690Z,19.37
2023-05-07T06:39:35.547Z,19.33
2023-05-07T06:42:03.424Z,17.87
2023-05-07T06:44:30.366Z,19.00
2023-05-07T06:46:57.645Z,18.77
2023-05-07T06:49:24.432Z,18.17
2023-05-07T06:51:51.306Z,18.13
2023-05-07T06:54:18.190Z,19.10
2023-05-07T06:56:45.468Z,17.67
2023-05-07T06:59:12.372Z,21.03
2023-05-07T07:01:39.475Z,19.63
2023-05-07T07:04:06.411Z,21.17
2023-05-07T07:06:33.444Z,18.77
2023-05-07T07:09:01.606Z,19.93
2023-05-07T07:11:28.408Z,17.83
2023-05-07T07:13:55.623Z,16.43
2023-05-07T07:16:23.263Z,16.83
2023-05-07T07:18:50.093Z,17.73
2023-05-07T07:21:16.970Z,16.67
2023-05-07T07:23:43.794Z,14.73
2023-05-07T07:26:11.718Z,13.97
2023-05-07T07:28:47.044Z,15.27
2023-05-07T07:31:15.015Z,14.67
2023-05-07T07:33:42.762Z,15.90
2023-05-07T07:36:09.704Z,13.30
2023-05-07T07:38:36.468Z,13.47
2023-05-07T07:41:03.463Z,14.20
2023-05-07T07:43:30.409Z,13.27
2023-05-07T07:45:57.121Z,14.87
2023-05-07T07:48:23.864Z,12.03
2023-05-07T07:50:53.684Z,12.37
2023-05-07T07:53:20.530Z,12.03
2023-05-07T07:55:47.401Z,13.00
2023-05-07T07:58:14.308Z,13.60
2023-05-07T08:00:41.264Z,13.93
2023-05-07T08:03:11.714Z,13.20
2023-05-07T08:05:39.476Z,14.57
2023-05-07T08:08:06.950Z,15.87
2023-05-07T08:10:35.831Z,16.10
2023-05-07T08:13:05.056Z,15.87
2023-05-07T08:15:32.431Z,15.03
2023-05-07T08:18:01.308Z,17.67
2023-05-07T08:20:29.040Z,16.13
2023-05-07T08:22:55.889Z,16.07
2023-05-07T08:25:22.883Z,17.20
2023-05-07T08:27:49.655Z,16.50
2023-05-07T08:30:16.958Z,16.47
2023-05-07T08:32:43.790Z,15.03
2023-05-07T08:35:10.832Z,14.20
2023-05-07T08:37:37.675Z,13.13
2023-05-07T08:40:06.571Z,12.70
2023-05-07T08:42:40.426Z,13.50
2023-05-07T08:45:11.714Z,11.37
2023-05-07T08:47:59.973Z,12.30
2023-05-07T08:50:26.841Z,14.97
2023-05-07T08:52:53.841Z,15.70
2023-05-07T08:55:22.070Z,16.20
2023-05-07T08:57:49.461Z,16.30
2023-05-07T09:00:16.601Z,14.73
2023-05-07T09:02:43.495Z,12.57
2023-05-07T09:05:10.845Z,11.20
2023-05-07T09:07:37.818Z,11.97
2023-05-07T09:10:06.186Z,13.67
2023-05-07T09:12:33.184Z,11.63
2023-05-07T09:15:00.958Z,12.80
2023-05-07T09:17:27.953Z,12.17
2023-05-07T09:19:54.996Z,11.87
2023-05-07T09:22:22.219Z,12.13
2023-05-07T09:24:50.644Z,11.30
2023-05-07T09:27:19.329Z,8.33
2023-05-07T09:29:46.478Z,9.83
2023-05-07T09:32:13.351Z,9.27
2023-05-07T09:34:40.525Z,9.47
2023-05-07T09:37:08.481Z,11.93
2023-05-07T09:39:50.101Z,10.37
2023-05-07T09:42:16.991Z,8.87
2023-05-07T09:44:48.136Z,9.43
2023-05-07T09:47:20.623Z,8.57
2023-05-07T09:49:51.311Z,9.83
2023-05-07T09:52:28.980Z,10.27
2023-05-07T09:54:58.486Z,11.27
2023-05-07T09:57:26.662Z,11.53
2023-05-07T09:59:54.482Z,10.60
2023-05-07T10:02:22.592Z,10.80
2023-05-07T10:04:50.351Z,9.37
2023-05-07T10:07:18.447Z,8.10
2023-05-07T10:09:49.041Z,9.23
2023-05-07T10:12:17.695Z,8.30
2023-05-07T10:14:44.893Z,8.97
2023-05-07T10:17:13.130Z,8.33
2023-05-07T10:19:41.409Z,7.13
2023-05-07T10:22:09.212Z,7.10
2023-05-07T10:24:38.483Z,6.63
2023-05-07T10:27:15.368Z,5.47
2023-05-07T10:30:13.502Z,4.80
2023-05-07T10:32:47.884Z,5.30
2023-05-07T10:35:32.894Z,4.87
2023-05-07T10:37:59.916Z,5.87
2023-05-07T10:40:26.801Z,6.40
2023-05-07T10:43:10.947Z,5.97
2023-05-07T10:45:38.203Z,6.77
2023-05-07T10:48:28.039Z,5.97
2023-05-07T10:51:20.740Z,6.37
2023-05-07T10:53:47.583Z,6.03
2023-05-07T10:56:21.264Z,6.10
2023-05-07T10:58:48.082Z,5.53
2023-05-07T11:01:15.954Z,5.80
2023-05-07T11:04:15.389Z,6.37
2023-05-07T11:06:42.163Z,7.97
2023-05-07T11:09:09.075Z,6.73
2023-05-07T11:11:48.213Z,6.70
2023-05-07T11:14:35.763Z,7.57
2023-05-07T11:17:05.929Z,7.33
2023-05-07T11:19:52.370Z,8.17
2023-05-07T11:22:35.656Z,8.83
2023-05-07T11:25:04.344Z,8.47
2023-05-07T11:27:31.308Z,9.57
2023-05-07T11:29:58.191Z,10.13
2023-05-07T11:32:30.773Z,8.40
2023-05-07T11:35:00.721Z,10.37
2023-05-07T11:37:31.296Z,9.67
2023-05-07T11:40:07.578Z,9.63
2023-05-07T11:42:39.608Z,10.07
2023-05-07T11:45:08.526Z,9.97
2023-05-07T11:47:35.975Z,11.03
2023-05-07T11:50:08.625Z,10.37
2023-05-07T11:52:36.230Z,9.93
2023-05-07T11:55:05.679Z,10.00
2023-05-07T11:57:35.139Z,10.07
2023-05-07T12:00:06.386Z,9.33
2023-05-07T12:02:33.493Z,8.83
2023-05-07T12:05:01.869Z,8.50
2023-05-07T12:07:28.681Z,9.43
2023-05-07T12:09:55.694Z,10.23
2023-05-07T12:12:22.518Z,9.50
2023-05-07T12:14:49.549Z,9.13
2023-05-07T12:17:17.679Z,8.43
2023-05-07T12:19:47.037Z,8.17
2023-05-07T12:22:14.133Z,7.90
2023-05-07T12:25:01.820Z,7.67
2023-05-07T12:27:28.736Z,9.23
2023-05-07T12:29:55.675Z,8.13
2023-05-07T12:32:23.213Z,8.57
2023-05-07T12:34:55.658Z,7.55
2023-05-07T12:37:27.544Z,7.00
2023-05-07T12:40:16.484Z,7.40
2023-05-07T12:42:44.507Z,6.60
2023-05-07T12:45:18.025Z,6.33
2023-05-07T12:47:48.860Z,5.97
2023-05-07T12:50:17.377Z,6.53
2023-05-07T12:52:46.831Z,6.50
2023-05-07T12:55:16.376Z,5.97
2023-05-07T12:57:45.152Z,6.07
2023-05-07T13:00:12.657Z,6.30
2023-05-07T13:02:41.122Z,7.40
2023-05-07T13:05:09.445Z,6.83
2023-05-07T13:07:38.022Z,6.22
2023-05-07T13:10:05.586Z,6.50
2023-05-07T13:12:32.416Z,6.50
2023-05-07T13:15:00.357Z,5.80
2023-05-07T13:17:27.463Z,5.35
2023-05-07T13:19:54.245Z,6.07
2023-05-07T13:22:21.245Z,5.78
2023-05-07T13:24:48.175Z,6.40
2023-05-07T13:27:14.953Z,5.87
2023-05-07T13:29:41.836Z,5.75
2023-05-07T13:32:08.801Z,6.45
2023-05-07T13:34:35.706Z,5.30
2023-05-07T13:37:02.509Z,5.80
2023-05-07T13:39:29.326Z,5.40
2023-05-07T13:41:56.195Z,5.93
2023-05-07T13:44:22.991Z,5.23
2023-05-07T13:46:49.797Z,5.40
2023-05-07T13:49:16.743Z,4.63
2023-05-07T13:51:43.566Z,5.97
2023-05-07T13:54:10.771Z,6.50
2023-05-07T13:56:37.755Z,5.63
2023-05-07T13:59:04.709Z,5.60
2023-05-07T14:01:32.569Z,4.93
2023-05-07T14:04:00.979Z,5.63
2023-05-07T14:06:27.864Z,5.67
2023-05-07T14:08:54.658Z,4.60
2023-05-07T14:11:21.949Z,5.13
2023-05-07T14:13:48.833Z,4.77
2023-05-07T14:16:16.480Z,5.07
2023-05-07T14:18:43.296Z,4.63
2023-05-07T14:21:10.959Z,4.13
2023-05-07T14:23:37.736Z,3.35
2023-05-07T14:26:04.787Z,3.70
2023-05-07T14:28:32.117Z,3.10
2023-05-07T14:30:59.143Z,3.30
2023-05-07T14:33:26.284Z,4.45
2023-05-07T14:35:53.076Z,3.28
2023-05-07T14:38:19.859Z,3.20
2023-05-07T14:40:46.604Z,3.28
2023-05-07T14:43:13.401Z,3.60
2023-05-07T14:45:40.496Z,3.80
2023-05-07T14:48:07.321Z,3.45
2023-05-07T14:50:34.136Z,3.20
2023-05-07T14:53:00.903Z,2.95
2023-05-07T14:55:27.762Z,3.20
2023-05-07T14:57:54.927Z,2.70
2023-05-07T15:00:21.857Z,3.10
2023-05-07T15:02:48.812Z,2.15
2023-05-07T15:05:15.889Z,2.33
2023-05-07T15:07:42.745Z,2.30
2023-05-07T15:10:09.899Z,2.42
2023-05-07T15:12:36.767Z,2.30
2023-05-07T15:15:04.161Z,2.65
2023-05-07T15:17:31.061Z,2.10
2023-05-07T15:19:58.055Z,2.00
2023-05-07T15:22:24.869Z,2.00
2023-05-07T15:24:51.646Z,2.05
2023-05-07T15:27:18.390Z,2.50
2023-05-07T15:29:45.556Z,2.33
2023-05-07T15:32:13.002Z,2.13
2023-05-07T15:34:39.886Z,1.88
2023-05-07T15:37:06.656Z,2.33
2023-05-07T15:39:33.619Z,2.40
2023-05-07T15:42:00.628Z,1.65
2023-05-07T15:44:29.642Z,1.80
2023-05-07T15:46:56.492Z,1.65
2023-05-07T15:49:23.382Z,1.90
2023-05-07T15:51:51.921Z,1.70
2023-05-07T15:54:21.041Z,1.60
2023-05-07T15:56:48.240Z,1.80
2023-05-07T15:59:17.005Z,2.17
2023-05-07T16:01:45.691Z,1.70
2023-05-07T16:04:12.677Z,1.73
2023-05-07T16:06:39.480Z,1.80
2023-05-07T16:09:06.328Z,1.50
2023-05-07T16:11:34.144Z,1.67
2023-05-07T16:14:01.547Z,1.52
2023-05-07T16:16:30.193Z,1.70
2023-05-07T16:18:57.516Z,1.70
2023-05-07T16:21:24.455Z,1.95
2023-05-07T16:23:51.280Z,1.38
2023-05-07T16:26:18.537Z,1.38
2023-05-07T16:28:45.491Z,1.20
2023-05-07T16:31:12.392Z,1.30
2023-05-07T16:33:39.407Z,1.60
2023-05-07T16:36:07.601Z,1.48
2023-05-07T16:38:34.775Z,1.50
2023-05-07T16:41:01.995Z,1.40
2023-05-07T16:43:28.829Z,1.60
2023-05-07T16:45:55.793Z,1.30
2023-05-07T16:48:22.754Z,1.40
2023-05-07T16:50:49.625Z,1.50
2023-05-07T16:53:16.442Z,1.48
2023-05-07T16:55:43.294Z,1.30
2023-05-07T16:58:11.371Z,1.15
2023-05-07T17:00:49.952Z,1.40
2023-05-07T17:03:17.619Z,1.58
2023-05-07T17:05:44.597Z,1.35
2023-05-07T17:08:13.637Z,1.70
2023-05-07T17:10:41.590Z,2.05
2023-05-07T17:13:08.861Z,1.50
2023-05-07T17:15:35.741Z,1.30
2023-05-07T17:18:03.249Z,1.60
2023-05-07T17:20:30.406Z,1.77
2023-05-07T17:22:57.528Z,2.03
2023-05-07T17:25:24.482Z,1.70
2023-05-07T17:27:51.398Z,1.75
2023-05-07T17:30:18.884Z,1.55
2023-05-07T17:32:45.906Z,2.03
2023-05-07T17:35:12.797Z,1.67
2023-05-07T17:37:40.117Z,1.90
2023-05-07T17:40:07.656Z,1.50
2023-05-07T17:42:34.487Z,1.75
2023-05-07T17:45:01.308Z,1.75
2023-05-07T17:47:28.110Z,1.70
2023-05-07T17:49:55.106Z,2.00
2023-05-07T17:52:21.918Z,1.77
2023-05-07T17:54:48.673Z,1.80
2023-05-07T17:57:15.413Z,1.75
2023-05-07T17:59:42.190Z,1.80
2023-05-07T18:02:08.924Z,2.40
2023-05-07T18:04:35.757Z,2.50
2023-05-07T18:07:02.613Z,2.20
2023-05-07T18:09:29.341Z,2.40
2023-05-07T18:11:56.197Z,2.13
2023-05-07T18:14:25.981Z,2.03
2023-05-07T18:16:54.237Z,2.13
2023-05-07T18:19:21.488Z,2.87
2023-05-07T18:21:48.911Z,2.90
2023-05-07T18:24:15.953Z,2.70
2023-05-07T18:26:42.814Z,3.17
2023-05-07T18:29:09.582Z,2.33
2023-05-07T18:31:38.039Z,2.63
2023-05-07T18:34:06.440Z,2.63
2023-05-07T18:36:33.640Z,2.83
2023-05-07T18:39:01.385Z,2.90
2023-05-07T18:41:28.342Z,2.80
2023-05-07T18:43:55.147Z,2.93
2023-05-07T18:46:22.261Z,3.30
2023-05-07T18:48:49.452Z,2.80
2023-05-07T18:51:16.322Z,3.27
2023-05-07T18:53:43.301Z,2.90
2023-05-07T18:56:13.714Z,3.17
2023-05-07T18:58:40.631Z,3.20
2023-05-07T19:01:08.597Z,2.93
2023-05-07T19:03:35.964Z,3.53
2023-05-07T19:06:03.336Z,3.17
2023-05-07T19:08:30.125Z,3.27
2023-05-07T19:10:56.934Z,3.57
2023-05-07T19:13:27.634Z,3.60
2023-05-07T19:15:54.920Z,3.23
2023-05-07T19:18:22.334Z,3.17
2023-05-07T19:20:51.040Z,3.47
2023-05-07T19:23:20.351Z,3.13
2023-05-07T19:25:48.122Z,3.00
2023-05-07T19:28:14.918Z,3.10
2023-05-07T19:30:41.759Z,3.00
2023-05-07T19:33:08.820Z,3.13
2023-05-07T19:35:35.740Z,3.60
2023-05-07T19:38:03.593Z,3.93
2023-05-07T19:40:30.685Z,3.87
2023-05-07T19:42:57.487Z,3.53
2023-05-07T19:45:24.265Z,6.07
2023-05-07T19:47:51.202Z,4.30
2023-05-07T19:50:18.217Z,5.40
2023-05-07T19:52:45.011Z,3.63
2023-05-07T19:55:12.801Z,5.50
2023-05-07T19:57:40.047Z,3.87
2023-05-07T20:00:07.888Z,4.03
2023-05-07T20:02:35.038Z,4.60
2023-05-07T20:05:01.859Z,4.00
2023-05-07T20:07:28.627Z,4.10
2023-05-07T20:09:55.728Z,4.47
2023-05-07T20:12:22.672Z,3.73
2023-05-07T20:14:49.687Z,4.00
2023-05-07T20:17:16.605Z,3.57
2023-05-07T20:19:43.498Z,4.17
2023-05-07T20:22:10.867Z,4.00
2023-05-07T20:24:40.555Z,4.27
2023-05-07T20:27:07.420Z,4.10
2023-05-07T20:29:34.348Z,4.20
2023-05-07T20:32:01.593Z,4.40
2023-05-07T20:34:28.710Z,4.20
2023-05-07T20:36:55.854Z,4.97
2023-05-07T20:39:24.377Z,4.97
2023-05-07T20:41:51.170Z,7.07
2023-05-07T20:44:19.131Z,5.33
2023-05-07T20:46:46.027Z,5.30
2023-05-07T20:49:13.220Z,4.40
2023-05-07T20:51:40.688Z,4.80
2023-05-07T20:54:08.959Z,4.83
2023-05-07T20:56:36.079Z,5.33
2023-05-07T20:59:02.905Z,4.20
2023-05-07T21:01:29.906Z,4.80
2023-05-07T21:03:57.121Z,4.77
2023-05-07T21:06:24.181Z,5.03
2023-05-07T21:08:51.083Z,4.77
2023-05-07T21:11:18.194Z,5.20
2023-05-07T21:13:45.299Z,4.87
2023-05-07T21:16:12.254Z,5.03
2023-05-07T21:18:39.275Z,5.90
2023-05-07T21:21:09.674Z,5.20
2023-05-07T21:23:37.322Z,5.50
2023-05-07T21:26:04.406Z,5.30
2023-05-07T21:28:31.280Z,6.00
2023-05-07T21:30:58.226Z,4.43
2023-05-07T21:33:25.108Z,5.27
2023-05-07T21:35:52.152Z,6.00
2023-05-07T21:38:19.079Z,6.00
2023-05-07T21:40:45.941Z,6.20
2023-05-07T21:43:12.725Z,6.13
2023-05-07T21:45:41.033Z,5.50
2023-05-07T21:48:08.249Z,6.17
2023-05-07T21:50:35.218Z,6.00
2023-05-07T21:53:02.039Z,5.87
2023-05-07T21:55:28.815Z,6.83
2023-05-07T21:58:04.961Z,5.27
2023-05-07T22:00:33.353Z,5.67
2023-05-07T22:03:00.719Z,4.93
2023-05-07T22:05:27.951Z,5.70
2023-05-07T22:07:55.051Z,5.17
2023-05-07T22:10:23.098Z,4.90
2023-05-07T22:12:50.691Z,5.13
2023-05-07T22:15:17.871Z,5.60
2023-05-07T22:17:45.316Z,5.70
2023-05-07T22:20:12.784Z,5.50
2023-05-07T22:23:00.227Z,5.00
2023-05-07T22:25:27.113Z,5.30
2023-05-07T22:27:53.911Z,4.47
2023-05-07T22:30:20.705Z,4.73
2023-05-07T22:32:47.821Z,4.60
2023-05-07T22:35:14.664Z,4.00
2023-05-07T22:37:41.412Z,4.50
2023-05-07T22:40:08.665Z,4.57
2023-05-07T22:42:35.481Z,5.07
2023-05-07T22:45:02.567Z,4.17
2023-05-07T22:47:31.025Z,4.67
2023-05-07T22:49:58.073Z,3.93
2023-05-07T22:52:24.857Z,4.43
2023-05-07T22:54:51.892Z,4.43
2023-05-07T22:57:18.805Z,4.20
2023-05-07T22:59:45.772Z,4.90
2023-05-07T23:02:12.716Z,4.30
2023-05-07T23:04:39.543Z,4.57
2023-05-07T23:07:06.750Z,4.20
2023-05-07T23:09:33.594Z,4.43
2023-05-07T23:12:00.457Z,5.03
2023-05-07T23:14:27.218Z,4.50
2023-05-07T23:16:54.490Z,4.70
2023-05-07T23:19:21.517Z,5.00
2023-05-07T23:21:49.134Z,4.10
2023-05-07T23:24:15.934Z,4.60
2023-05-07T23:26:42.758Z,4.60
2023-05-07T23:29:09.497Z,4.40
2023-05-07T23:31:36.324Z,4.20
2023-05-07T23:34:03.353Z,4.47
2023-05-07T23:36:30.336Z,4.20
2023-05-07T23:38:57.058Z,4.80
2023-05-07T23:41:24.206Z,4.57
2023-05-07T23:43:51.210Z,4.90
2023-05-07T23:46:18.092Z,5.43
2023-05-07T23:48:44.967Z,4.93
2023-05-07T23:51:11.726Z,5.20
2023-05-07T23:53:38.572Z,5.10
2023-05-07T23:56:05.949Z,5.37
2023-05-07T23:58:32.693Z,4.97
